sensor_id;sensor_type;location;lat;lon;timestamp;pressure;altitude;pressure_sealevel;temperature;humidity
4024;BME280;2026;51.002;13.668;2022-12-20T00:03:17;99681.38;;;1.35;83.32
4024;BME280;2026;51.002;13.668;2022-12-20T00:08:21;99664.94;;;1.36;83.85
4024;BME280;2026;51.002;13.668;2022-12-20T00:13:25;99648.88;;;1.42;82.79
4024;BME280;2026;51.002;13.668;2022-12-20T00:18:28;99631.59;;;1.52;82.54
4024;BME280;2026;51.002;13.668;2022-12-20T00:23:31;99606.44;;;1.45;83.19
4024;BME280;2026;51.002;13.668;2022-12-20T00:28:37;99584.03;;;1.35;83.91
4024;BME280;2026;51.002;13.668;2022-12-20T00:33:44;99579.75;;;1.54;83.61
4024;BME280;2026;51.002;13.668;2022-12-20T00:38:49;99611.34;;;1.38;85.34
4024;BME280;2026;51.002;13.668;2022-12-20T00:43:54;99622.22;;;1.32;85.69
4024;BME280;2026;51.002;13.668;2022-12-20T00:48:57;99618.56;;;1.05;87.23
4024;BME280;2026;51.002;13.668;2022-12-20T00:54:00;99628.06;;;0.94;87.46
4024;BME280;2026;51.002;13.668;2022-12-20T00:59:04;99616.53;;;1.18;86.06
4024;BME280;2026;51.002;13.668;2022-12-20T01:04:07;99611.75;;;1.13;86.36
4024;BME280;2026;51.002;13.668;2022-12-20T01:09:11;99611.47;;;1.26;85.42
4024;BME280;2026;51.002;13.668;2022-12-20T01:14:15;99614.06;;;0.97;86.37
4024;BME280;2026;51.002;13.668;2022-12-20T01:19:19;99599.81;;;0.93;87.17
4024;BME280;2026;51.002;13.668;2022-12-20T01:24:22;99589.72;;;1.19;86.34
4024;BME280;2026;51.002;13.668;2022-12-20T01:29:26;99600.22;;;1.18;87.21
4024;BME280;2026;51.002;13.668;2022-12-20T01:34:29;99619.38;;;1.15;87.37
4024;BME280;2026;51.002;13.668;2022-12-20T01:39:32;99609.72;;;1.27;86.51
4024;BME280;2026;51.002;13.668;2022-12-20T01:45:04;99614.78;;;1.29;86.02
4024;BME280;2026;51.002;13.668;2022-12-20T01:50:09;99600.47;;;1.24;86.40
4024;BME280;2026;51.002;13.668;2022-12-20T01:55:16;99605.22;;;1.19;86.13
4024;BME280;2026;51.002;13.668;2022-12-20T02:00:22;99592.59;;;1.06;87.46
4024;BME280;2026;51.002;13.668;2022-12-20T02:05:25;99596.00;;;1.07;87.78
4024;BME280;2026;51.002;13.668;2022-12-20T02:10:36;99603.03;;;0.55;89.11
4024;BME280;2026;51.002;13.668;2022-12-20T02:15:50;99583.50;;;0.92;88.66
4024;BME280;2026;51.002;13.668;2022-12-20T02:32:12;99593.00;;;1.11;87.70
4024;BME280;2026;51.002;13.668;2022-12-20T02:37:17;99591.94;;;1.04;87.76
4024;BME280;2026;51.002;13.668;2022-12-20T02:42:22;99596.94;;;0.86;87.55
4024;BME280;2026;51.002;13.668;2022-12-20T02:47:30;99588.94;;;0.99;88.18
4024;BME280;2026;51.002;13.668;2022-12-20T02:52:35;99596.69;;;1.09;87.78
4024;BME280;2026;51.002;13.668;2022-12-20T02:57:48;99581.72;;;1.22;88.05
4024;BME280;2026;51.002;13.668;2022-12-20T03:03:03;99581.31;;;1.27;88.25
4024;BME280;2026;51.002;13.668;2022-12-20T03:08:26;99579.00;;;1.24;88.47
4024;BME280;2026;51.002;13.668;2022-12-20T03:13:29;99570.97;;;1.27;88.63
4024;BME280;2026;51.002;13.668;2022-12-20T03:18:41;99564.84;;;1.18;88.91
4024;BME280;2026;51.002;13.668;2022-12-20T03:23:47;99567.84;;;1.13;90.06
4024;BME280;2026;51.002;13.668;2022-12-20T03:28:49;99557.94;;;1.19;90.14
4024;BME280;2026;51.002;13.668;2022-12-20T03:33:56;99566.88;;;1.44;88.57
4024;BME280;2026;51.002;13.668;2022-12-20T03:38:59;99569.66;;;1.13;89.55
4024;BME280;2026;51.002;13.668;2022-12-20T03:44:06;99568.28;;;1.19;90.12
4024;BME280;2026;51.002;13.668;2022-12-20T03:49:11;99563.06;;;1.38;90.27
4024;BME280;2026;51.002;13.668;2022-12-20T03:54:20;99572.97;;;1.53;88.59
4024;BME280;2026;51.002;13.668;2022-12-20T03:59:45;99561.56;;;1.46;89.26
4024;BME280;2026;51.002;13.668;2022-12-20T04:04:51;99559.78;;;1.46;89.09
4024;BME280;2026;51.002;13.668;2022-12-20T04:09:56;99558.00;;;1.47;88.65
4024;BME280;2026;51.002;13.668;2022-12-20T04:14:59;99547.41;;;1.50;89.01
4024;BME280;2026;51.002;13.668;2022-12-20T04:20:06;99555.16;;;1.50;88.65
4024;BME280;2026;51.002;13.668;2022-12-20T04:25:28;99555.16;;;1.50;89.05
4024;BME280;2026;51.002;13.668;2022-12-20T04:30:31;99559.81;;;1.26;90.23
4024;BME280;2026;51.002;13.668;2022-12-20T04:35:36;99566.66;;;1.18;91.16
4024;BME280;2026;51.002;13.668;2022-12-20T04:40:39;99552.47;;;1.32;91.23
4024;BME280;2026;51.002;13.668;2022-12-20T04:45:42;99546.47;;;1.31;91.59
4024;BME280;2026;51.002;13.668;2022-12-20T04:50:48;99547.97;;;1.44;90.97
4024;BME280;2026;51.002;13.668;2022-12-20T04:55:52;99545.06;;;1.57;90.68
4024;BME280;2026;51.002;13.668;2022-12-20T05:00:56;99536.22;;;1.59;91.32
4024;BME280;2026;51.002;13.668;2022-12-20T05:06:05;99534.16;;;1.63;90.89
4024;BME280;2026;51.002;13.668;2022-12-20T05:11:10;99528.19;;;1.62;91.40
4024;BME280;2026;51.002;13.668;2022-12-20T05:16:13;99532.56;;;1.90;90.82
4024;BME280;2026;51.002;13.668;2022-12-20T05:21:18;99519.88;;;1.97;89.90
4024;BME280;2026;51.002;13.668;2022-12-20T05:26:44;99525.66;;;1.80;90.82
4024;BME280;2026;51.002;13.668;2022-12-20T05:31:49;99517.78;;;1.82;90.70
4024;BME280;2026;51.002;13.668;2022-12-20T05:36:54;99512.31;;;1.85;90.95
4024;BME280;2026;51.002;13.668;2022-12-20T05:42:03;99499.38;;;1.85;90.92
4024;BME280;2026;51.002;13.668;2022-12-20T05:47:06;99493.84;;;1.80;91.05
4024;BME280;2026;51.002;13.668;2022-12-20T05:52:12;99500.34;;;1.84;91.84
4024;BME280;2026;51.002;13.668;2022-12-20T05:57:16;99494.81;;;1.79;91.59
4024;BME280;2026;51.002;13.668;2022-12-20T06:02:20;99494.50;;;1.82;91.98
4024;BME280;2026;51.002;13.668;2022-12-20T06:07:30;99493.69;;;1.81;91.96
4024;BME280;2026;51.002;13.668;2022-12-20T06:12:34;99474.28;;;1.67;91.85
4024;BME280;2026;51.002;13.668;2022-12-20T06:17:37;99475.91;;;1.40;92.76
4024;BME280;2026;51.002;13.668;2022-12-20T06:22:42;99495.69;;;1.60;92.87
4024;BME280;2026;51.002;13.668;2022-12-20T06:27:47;99499.34;;;1.67;91.66
4024;BME280;2026;51.002;13.668;2022-12-20T06:32:51;99499.28;;;1.77;91.51
4024;BME280;2026;51.002;13.668;2022-12-20T06:37:56;99491.38;;;1.78;91.63
4024;BME280;2026;51.002;13.668;2022-12-20T06:43:00;99490.00;;;1.84;91.90
4024;BME280;2026;51.002;13.668;2022-12-20T06:48:04;99498.94;;;1.90;91.22
4024;BME280;2026;51.002;13.668;2022-12-20T06:53:10;99511.38;;;1.86;91.54
4024;BME280;2026;51.002;13.668;2022-12-20T06:58:13;99505.28;;;1.77;91.74
4024;BME280;2026;51.002;13.668;2022-12-20T07:03:18;99506.75;;;1.80;92.12
4024;BME280;2026;51.002;13.668;2022-12-20T07:08:24;99505.50;;;1.84;93.03
4024;BME280;2026;51.002;13.668;2022-12-20T07:13:27;99514.25;;;1.73;93.68
4024;BME280;2026;51.002;13.668;2022-12-20T07:18:30;99494.63;;;1.80;93.62
4024;BME280;2026;51.002;13.668;2022-12-20T07:23:34;99487.97;;;1.78;93.48
4024;BME280;2026;51.002;13.668;2022-12-20T07:28:37;99493.94;;;1.88;92.76
4024;BME280;2026;51.002;13.668;2022-12-20T07:33:40;99491.53;;;2.05;92.75
4024;BME280;2026;51.002;13.668;2022-12-20T07:38:45;99483.53;;;2.16;91.93
4024;BME280;2026;51.002;13.668;2022-12-20T07:43:49;99473.16;;;2.26;91.74
4024;BME280;2026;51.002;13.668;2022-12-20T07:48:53;99483.88;;;2.31;91.10
4024;BME280;2026;51.002;13.668;2022-12-20T07:54:00;99486.78;;;2.00;92.48
4024;BME280;2026;51.002;13.668;2022-12-20T07:59:05;99478.53;;;2.51;88.65
4024;BME280;2026;51.002;13.668;2022-12-20T08:04:12;99505.47;;;2.76;86.95
4024;BME280;2026;51.002;13.668;2022-12-20T08:09:20;99500.53;;;2.65;86.92
4024;BME280;2026;51.002;13.668;2022-12-20T08:14:24;99504.50;;;2.77;84.45
4024;BME280;2026;51.002;13.668;2022-12-20T08:19:27;99493.41;;;2.67;84.00
4024;BME280;2026;51.002;13.668;2022-12-20T08:24:34;99490.50;;;2.70;83.59
4024;BME280;2026;51.002;13.668;2022-12-20T08:29:37;99499.75;;;2.73;83.30
4024;BME280;2026;51.002;13.668;2022-12-20T08:34:40;99498.97;;;2.72;82.07
4024;BME280;2026;51.002;13.668;2022-12-20T08:39:45;99510.63;;;2.58;82.08
4024;BME280;2026;51.002;13.668;2022-12-20T08:44:48;99487.28;;;2.50;82.07
4024;BME280;2026;51.002;13.668;2022-12-20T08:49:51;99505.84;;;2.45;81.51
4024;BME280;2026;51.002;13.668;2022-12-20T08:54:55;99501.25;;;2.39;81.54
4024;BME280;2026;51.002;13.668;2022-12-20T08:59:59;99495.94;;;2.41;80.81
4024;BME280;2026;51.002;13.668;2022-12-20T09:05:03;99481.50;;;2.38;81.24
4024;BME280;2026;51.002;13.668;2022-12-20T09:10:09;99494.25;;;2.49;81.11
4024;BME280;2026;51.002;13.668;2022-12-20T09:15:13;99496.38;;;2.72;80.77
4024;BME280;2026;51.002;13.668;2022-12-20T09:20:16;99499.28;;;2.96;78.71
4024;BME280;2026;51.002;13.668;2022-12-20T09:25:21;99501.88;;;2.96;79.42
4024;BME280;2026;51.002;13.668;2022-12-20T09:30:24;99510.53;;;3.04;78.52
4024;BME280;2026;51.002;13.668;2022-12-20T09:35:27;99503.28;;;3.35;78.19
4024;BME280;2026;51.002;13.668;2022-12-20T09:40:31;99515.47;;;3.42;77.56
4024;BME280;2026;51.002;13.668;2022-12-20T09:45:38;99495.19;;;3.38;77.66
4024;BME280;2026;51.002;13.668;2022-12-20T09:50:46;99519.22;;;3.22;78.78
4024;BME280;2026;51.002;13.668;2022-12-20T09:55:58;99502.81;;;3.13;77.20
4024;BME280;2026;51.002;13.668;2022-12-20T10:01:15;99506.88;;;3.15;77.81
4024;BME280;2026;51.002;13.668;2022-12-20T10:06:37;99512.31;;;3.30;77.45
4024;BME280;2026;51.002;13.668;2022-12-20T10:11:57;99524.81;;;3.09;78.28
4024;BME280;2026;51.002;13.668;2022-12-20T10:17:04;99513.94;;;3.05;77.02
4024;BME280;2026;51.002;13.668;2022-12-20T10:22:15;99505.97;;;2.62;79.12
4024;BME280;2026;51.002;13.668;2022-12-20T10:27:22;99506.50;;;2.47;80.02
4024;BME280;2026;51.002;13.668;2022-12-20T10:32:26;99519.22;;;2.59;78.76
4024;BME280;2026;51.002;13.668;2022-12-20T10:37:29;99506.03;;;2.70;78.59
4024;BME280;2026;51.002;13.668;2022-12-20T10:42:37;99500.97;;;2.60;78.58
4024;BME280;2026;51.002;13.668;2022-12-20T10:47:44;99486.81;;;2.55;77.78
4024;BME280;2026;51.002;13.668;2022-12-20T10:53:03;99473.59;;;2.58;77.13
4024;BME280;2026;51.002;13.668;2022-12-20T10:58:13;99482.84;;;2.60;77.34
4024;BME280;2026;51.002;13.668;2022-12-20T11:03:19;99467.72;;;2.74;76.63
4024;BME280;2026;51.002;13.668;2022-12-20T11:08:24;99459.25;;;2.63;77.50
4024;BME280;2026;51.002;13.668;2022-12-20T11:13:50;99439.63;;;2.61;77.44
4024;BME280;2026;51.002;13.668;2022-12-20T11:19:05;99421.13;;;2.74;77.09
4024;BME280;2026;51.002;13.668;2022-12-20T11:24:22;99399.38;;;2.93;76.25
4024;BME280;2026;51.002;13.668;2022-12-20T11:29:45;99407.44;;;2.82;76.50
4024;BME280;2026;51.002;13.668;2022-12-20T11:34:59;99397.81;;;3.00;75.77
4024;BME280;2026;51.002;13.668;2022-12-20T11:40:15;99402.94;;;2.92;76.95
4024;BME280;2026;51.002;13.668;2022-12-20T11:45:28;99384.41;;;3.05;76.24
4024;BME280;2026;51.002;13.668;2022-12-20T11:50:44;99381.72;;;2.88;75.96
4024;BME280;2026;51.002;13.668;2022-12-20T11:55:52;99396.50;;;2.96;75.45
4024;BME280;2026;51.002;13.668;2022-12-20T12:01:02;99391.47;;;3.29;74.32
4024;BME280;2026;51.002;13.668;2022-12-20T12:06:08;99387.19;;;3.12;74.71
4024;BME280;2026;51.002;13.668;2022-12-20T12:11:17;99387.84;;;3.14;75.62
4024;BME280;2026;51.002;13.668;2022-12-20T12:16:46;99365.69;;;3.19;75.46
4024;BME280;2026;51.002;13.668;2022-12-20T12:21:57;99362.22;;;3.11;75.95
4024;BME280;2026;51.002;13.668;2022-12-20T12:27:03;99337.75;;;3.05;75.64
4024;BME280;2026;51.002;13.668;2022-12-20T12:32:18;99321.66;;;2.85;76.46
4024;BME280;2026;51.002;13.668;2022-12-20T12:43:27;99328.94;;;2.89;76.36
4024;BME280;2026;51.002;13.668;2022-12-20T12:48:42;99319.38;;;2.82;76.06
4024;BME280;2026;51.002;13.668;2022-12-20T12:53:49;99310.09;;;2.71;76.61
4024;BME280;2026;51.002;13.668;2022-12-20T12:59:09;99316.72;;;2.65;76.93
4024;BME280;2026;51.002;13.668;2022-12-20T13:04:27;99315.53;;;2.59;77.61
4024;BME280;2026;51.002;13.668;2022-12-20T13:09:40;99299.69;;;2.62;77.16
4024;BME280;2026;51.002;13.668;2022-12-20T13:14:48;99296.19;;;2.72;76.84
4024;BME280;2026;51.002;13.668;2022-12-20T13:19:54;99297.94;;;2.71;77.43
4024;BME280;2026;51.002;13.668;2022-12-20T13:24:59;99265.75;;;2.74;76.94
4024;BME280;2026;51.002;13.668;2022-12-20T13:30:27;99260.63;;;2.82;76.79
4024;BME280;2026;51.002;13.668;2022-12-20T13:35:45;99255.66;;;2.89;76.86
4024;BME280;2026;51.002;13.668;2022-12-20T13:40:53;99253.06;;;2.89;76.97
4024;BME280;2026;51.002;13.668;2022-12-20T13:46:04;99243.00;;;2.94;77.55
4024;BME280;2026;51.002;13.668;2022-12-20T13:51:17;99234.28;;;2.95;77.17
4024;BME280;2026;51.002;13.668;2022-12-20T13:56:32;99237.34;;;2.99;76.68
4024;BME280;2026;51.002;13.668;2022-12-20T14:01:36;99244.31;;;2.90;76.62
4024;BME280;2026;51.002;13.668;2022-12-20T14:06:40;99231.53;;;2.97;76.84
4024;BME280;2026;51.002;13.668;2022-12-20T14:11:45;99228.28;;;2.86;77.12
4024;BME280;2026;51.002;13.668;2022-12-20T14:16:49;99234.03;;;2.72;77.95
4024;BME280;2026;51.002;13.668;2022-12-20T14:21:53;99219.50;;;2.79;77.52
4024;BME280;2026;51.002;13.668;2022-12-20T14:26:56;99210.75;;;2.72;77.80
4024;BME280;2026;51.002;13.668;2022-12-20T14:32:00;99206.81;;;2.68;77.31
4024;BME280;2026;51.002;13.668;2022-12-20T14:37:28;99210.97;;;2.52;78.91
4024;BME280;2026;51.002;13.668;2022-12-20T14:42:34;99202.09;;;2.55;78.54
4024;BME280;2026;51.002;13.668;2022-12-20T14:47:38;99197.94;;;2.70;77.83
4024;BME280;2026;51.002;13.668;2022-12-20T14:52:50;99185.34;;;2.75;78.01
4024;BME280;2026;51.002;13.668;2022-12-20T14:57:55;99171.41;;;2.68;78.36
4024;BME280;2026;51.002;13.668;2022-12-20T15:03:01;99169.63;;;2.60;78.43
4024;BME280;2026;51.002;13.668;2022-12-20T15:08:14;99186.28;;;2.58;79.33
4024;BME280;2026;51.002;13.668;2022-12-20T15:13:19;99185.78;;;2.54;79.25
4024;BME280;2026;51.002;13.668;2022-12-20T15:18:23;99182.41;;;2.70;78.91
4024;BME280;2026;51.002;13.668;2022-12-20T15:23:28;99186.47;;;2.73;78.68
4024;BME280;2026;51.002;13.668;2022-12-20T15:28:31;99179.16;;;2.60;79.95
4024;BME280;2026;51.002;13.668;2022-12-20T15:33:36;99187.44;;;2.72;79.53
4024;BME280;2026;51.002;13.668;2022-12-20T15:38:41;99189.69;;;2.67;79.16
4024;BME280;2026;51.002;13.668;2022-12-20T15:44:05;99196.19;;;2.71;79.70
4024;BME280;2026;51.002;13.668;2022-12-20T15:49:13;99187.94;;;2.75;79.19
4024;BME280;2026;51.002;13.668;2022-12-20T15:54:22;99198.66;;;2.81;79.32
4024;BME280;2026;51.002;13.668;2022-12-20T15:59:28;99186.81;;;2.78;80.40
4024;BME280;2026;51.002;13.668;2022-12-20T16:04:51;99186.47;;;2.73;79.91
4024;BME280;2026;51.002;13.668;2022-12-20T16:09:56;99198.91;;;2.69;80.36
4024;BME280;2026;51.002;13.668;2022-12-20T16:14:59;99188.28;;;2.81;79.59
4024;BME280;2026;51.002;13.668;2022-12-20T16:20:02;99191.53;;;2.83;79.53
4024;BME280;2026;51.002;13.668;2022-12-20T16:25:13;99188.09;;;2.82;78.77
4024;BME280;2026;51.002;13.668;2022-12-20T16:30:22;99177.59;;;2.84;79.29
4024;BME280;2026;51.002;13.668;2022-12-20T16:35:28;99184.06;;;2.80;78.26
4024;BME280;2026;51.002;13.668;2022-12-20T16:40:33;99182.63;;;2.85;78.49
4024;BME280;2026;51.002;13.668;2022-12-20T16:45:37;99201.06;;;2.90;78.40
4024;BME280;2026;51.002;13.668;2022-12-20T16:50:39;99185.03;;;2.87;77.89
4024;BME280;2026;51.002;13.668;2022-12-20T16:55:45;99195.13;;;2.98;77.42
4024;BME280;2026;51.002;13.668;2022-12-20T17:00:48;99188.47;;;2.87;78.28
4024;BME280;2026;51.002;13.668;2022-12-20T17:05:51;99188.78;;;2.84;78.19
4024;BME280;2026;51.002;13.668;2022-12-20T17:10:59;99170.81;;;2.83;78.53
4024;BME280;2026;51.002;13.668;2022-12-20T17:16:02;99165.22;;;2.61;79.14
4024;BME280;2026;51.002;13.668;2022-12-20T17:21:19;99170.25;;;2.54;79.69
4024;BME280;2026;51.002;13.668;2022-12-20T17:26:26;99169.78;;;2.67;77.40
4024;BME280;2026;51.002;13.668;2022-12-20T17:31:30;99178.41;;;2.76;77.83
4024;BME280;2026;51.002;13.668;2022-12-20T17:36:36;99166.22;;;2.68;77.05
4024;BME280;2026;51.002;13.668;2022-12-20T17:41:41;99149.09;;;2.67;77.94
4024;BME280;2026;51.002;13.668;2022-12-20T17:46:45;99160.41;;;2.66;77.44
4024;BME280;2026;51.002;13.668;2022-12-20T17:51:48;99164.44;;;2.60;77.81
4024;BME280;2026;51.002;13.668;2022-12-20T17:56:53;99155.88;;;2.68;77.01
4024;BME280;2026;51.002;13.668;2022-12-20T18:01:57;99158.44;;;2.60;78.48
4024;BME280;2026;51.002;13.668;2022-12-20T18:07:00;99145.78;;;2.48;78.04
4024;BME280;2026;51.002;13.668;2022-12-20T18:12:07;99132.22;;;2.63;77.70
4024;BME280;2026;51.002;13.668;2022-12-20T18:17:10;99126.06;;;2.56;78.52
4024;BME280;2026;51.002;13.668;2022-12-20T18:22:13;99128.31;;;2.42;79.25
4024;BME280;2026;51.002;13.668;2022-12-20T18:27:18;99133.66;;;2.49;78.28
4024;BME280;2026;51.002;13.668;2022-12-20T18:32:29;99107.16;;;2.63;78.41
4024;BME280;2026;51.002;13.668;2022-12-20T18:37:32;99108.75;;;2.56;78.19
4024;BME280;2026;51.002;13.668;2022-12-20T18:42:36;99091.13;;;2.60;78.47
4024;BME280;2026;51.002;13.668;2022-12-20T18:47:39;99106.53;;;2.61;77.60
4024;BME280;2026;51.002;13.668;2022-12-20T18:52:42;99099.06;;;2.58;78.03
4024;BME280;2026;51.002;13.668;2022-12-20T18:57:49;99096.94;;;2.54;78.23
4024;BME280;2026;51.002;13.668;2022-12-20T19:02:52;99105.50;;;2.46;78.05
4024;BME280;2026;51.002;13.668;2022-12-20T19:07:59;99110.53;;;2.56;78.97
4024;BME280;2026;51.002;13.668;2022-12-20T19:13:04;99102.53;;;2.32;78.75
4024;BME280;2026;51.002;13.668;2022-12-20T19:18:07;99105.59;;;2.28;78.86
4024;BME280;2026;51.002;13.668;2022-12-20T19:23:10;99099.28;;;2.22;79.32
4024;BME280;2026;51.002;13.668;2022-12-20T19:28:14;99099.75;;;2.17;79.70
4024;BME280;2026;51.002;13.668;2022-12-20T19:33:17;99100.09;;;2.22;79.86
4024;BME280;2026;51.002;13.668;2022-12-20T19:38:20;99100.69;;;2.16;80.72
4024;BME280;2026;51.002;13.668;2022-12-20T19:43:24;99070.09;;;2.03;80.44
4024;BME280;2026;51.002;13.668;2022-12-20T19:48:27;99074.50;;;2.11;80.49
4024;BME280;2026;51.002;13.668;2022-12-20T19:53:31;99082.38;;;2.01;81.35
4024;BME280;2026;51.002;13.668;2022-12-20T19:58:35;99078.31;;;1.99;81.07
4024;BME280;2026;51.002;13.668;2022-12-20T20:03:39;99077.13;;;2.19;80.80
4024;BME280;2026;51.002;13.668;2022-12-20T20:08:42;99087.94;;;2.15;80.62
4024;BME280;2026;51.002;13.668;2022-12-20T20:13:47;99078.88;;;2.19;80.81
4024;BME280;2026;51.002;13.668;2022-12-20T20:18:50;99060.97;;;2.26;80.28
4024;BME280;2026;51.002;13.668;2022-12-20T20:23:54;99070.66;;;2.23;80.79
4024;BME280;2026;51.002;13.668;2022-12-20T20:28:59;99070.16;;;2.20;80.15
4024;BME280;2026;51.002;13.668;2022-12-20T20:34:02;99085.38;;;2.23;80.58
4024;BME280;2026;51.002;13.668;2022-12-20T20:39:05;99077.16;;;2.28;80.55
4024;BME280;2026;51.002;13.668;2022-12-20T20:44:11;99063.19;;;2.12;80.83
4024;BME280;2026;51.002;13.668;2022-12-20T20:49:14;99061.28;;;2.22;80.74
4024;BME280;2026;51.002;13.668;2022-12-20T20:54:17;99050.66;;;2.34;79.53
4024;BME280;2026;51.002;13.668;2022-12-20T20:59:21;99045.63;;;2.32;80.38
4024;BME280;2026;51.002;13.668;2022-12-20T21:04:25;99064.41;;;2.43;79.93
4024;BME280;2026;51.002;13.668;2022-12-20T21:09:28;99051.63;;;2.41;79.10
4024;BME280;2026;51.002;13.668;2022-12-20T21:14:34;99053.88;;;2.36;79.31
4024;BME280;2026;51.002;13.668;2022-12-20T21:19:57;99041.28;;;2.41;79.43
4024;BME280;2026;51.002;13.668;2022-12-20T21:24:59;99031.59;;;2.43;79.31
4024;BME280;2026;51.002;13.668;2022-12-20T21:30:05;99053.91;;;2.53;79.11
4024;BME280;2026;51.002;13.668;2022-12-20T21:35:08;99045.03;;;2.55;78.33
4024;BME280;2026;51.002;13.668;2022-12-20T21:40:11;99041.13;;;2.59;78.66
4024;BME280;2026;51.002;13.668;2022-12-20T21:45:16;99042.25;;;2.48;79.50
4024;BME280;2026;51.002;13.668;2022-12-20T21:50:19;99031.25;;;2.55;79.30
4024;BME280;2026;51.002;13.668;2022-12-20T21:55:22;99039.50;;;2.50;79.00
4024;BME280;2026;51.002;13.668;2022-12-20T22:00:26;99045.53;;;2.59;78.72
4024;BME280;2026;51.002;13.668;2022-12-20T22:05:30;99030.47;;;2.54;79.35
4024;BME280;2026;51.002;13.668;2022-12-20T22:10:33;99030.28;;;2.64;78.20
4024;BME280;2026;51.002;13.668;2022-12-20T22:15:38;99043.56;;;2.53;79.02
4024;BME280;2026;51.002;13.668;2022-12-20T22:20:43;99024.47;;;2.62;79.45
4024;BME280;2026;51.002;13.668;2022-12-20T22:25:46;99030.00;;;2.59;79.04
4024;BME280;2026;51.002;13.668;2022-12-20T22:30:51;99016.06;;;2.52;79.72
4024;BME280;2026;51.002;13.668;2022-12-20T22:35:54;99023.84;;;2.60;79.15
4024;BME280;2026;51.002;13.668;2022-12-20T22:41:08;99028.03;;;2.61;77.97
4024;BME280;2026;51.002;13.668;2022-12-20T22:46:13;99021.75;;;2.63;77.92
4024;BME280;2026;51.002;13.668;2022-12-20T22:51:19;99017.03;;;2.59;78.01
4024;BME280;2026;51.002;13.668;2022-12-20T22:56:22;99016.84;;;2.52;78.82
4024;BME280;2026;51.002;13.668;2022-12-20T23:01:26;99022.69;;;2.46;78.41
4024;BME280;2026;51.002;13.668;2022-12-20T23:06:29;99017.53;;;2.46;79.39
4024;BME280;2026;51.002;13.668;2022-12-20T23:11:32;98999.88;;;2.41;80.00
4024;BME280;2026;51.002;13.668;2022-12-20T23:16:54;99001.03;;;2.55;78.88
4024;BME280;2026;51.002;13.668;2022-12-20T23:21:57;98995.38;;;2.60;78.39
4024;BME280;2026;51.002;13.668;2022-12-20T23:27:17;98996.34;;;2.50;79.63
4024;BME280;2026;51.002;13.668;2022-12-20T23:32:22;98973.34;;;2.64;79.12
4024;BME280;2026;51.002;13.668;2022-12-20T23:37:24;98961.38;;;2.63;79.24
4024;BME280;2026;51.002;13.668;2022-12-20T23:42:29;98966.25;;;2.66;79.15
4024;BME280;2026;51.002;13.668;2022-12-20T23:47:33;98969.47;;;2.60;79.49
4024;BME280;2026;51.002;13.668;2022-12-20T23:52:36;98963.97;;;2.55;79.13
4024;BME280;2026;51.002;13.668;2022-12-20T23:57:39;98961.88;;;2.42;78.52
